createdAt,value
2023-03-16T00:02:00.797Z,101187.09
2023-03-16T00:04:31.936Z,101196.66
2023-03-16T00:07:02.468Z,101197.56
2023-03-16T00:09:32.761Z,101195.94
2023-03-16T00:12:06.347Z,101195.69
2023-03-16T00:14:37.159Z,101196.66
2023-03-16T00:17:08.175Z,101189.63
2023-03-16T00:19:38.502Z,101210.81
2023-03-16T00:22:08.654Z,101203.31
2023-03-16T00:24:39.198Z,101207.97
2023-03-16T00:27:09.351Z,101205.06
2023-03-16T00:29:39.565Z,101211.97
2023-03-16T00:32:09.828Z,101208.88
2023-03-16T00:34:39.896Z,101220.94
2023-03-16T00:37:10.179Z,101218.69
2023-03-16T00:39:40.303Z,101220.16
2023-03-16T00:42:11.257Z,101229.50
2023-03-16T00:44:43.243Z,101224.75
2023-03-16T00:47:16.748Z,101226.41
2023-03-16T00:49:47.042Z,101232.47
2023-03-16T00:52:18.310Z,101236.00
2023-03-16T00:54:49.128Z,101240.16
2023-03-16T00:57:23.061Z,101244.56
2023-03-16T00:59:53.997Z,101245.16
2023-03-16T01:02:27.173Z,101252.25
2023-03-16T01:04:57.264Z,101252.03
2023-03-16T01:07:28.768Z,101262.66
2023-03-16T01:10:00.764Z,101271.41
2023-03-16T01:12:32.139Z,101264.97
2023-03-16T01:15:02.760Z,101264.78
2023-03-16T01:17:36.626Z,101183.81
2023-03-16T01:20:09.771Z,101264.56
2023-03-16T01:22:40.327Z,101266.03
2023-03-16T01:25:12.812Z,101273.97
2023-03-16T01:27:44.536Z,101271.88
2023-03-16T01:30:15.011Z,101276.25
2023-03-16T01:32:45.643Z,101280.63
2023-03-16T01:35:16.884Z,101285.63
2023-03-16T01:37:47.123Z,101288.13
2023-03-16T01:40:20.339Z,101287.91
2023-03-16T01:42:51.699Z,101292.94
2023-03-16T01:45:40.455Z,101291.06
2023-03-16T01:48:11.875Z,101296.13
2023-03-16T01:50:43.592Z,101302.34
2023-03-16T01:53:14.654Z,101300.25
2023-03-16T01:55:44.974Z,101302.59
2023-03-16T01:58:16.055Z,101310.28
2023-03-16T02:00:47.295Z,101306.56
2023-03-16T02:03:24.445Z,101306.16
2023-03-16T02:06:05.637Z,101314.91
2023-03-16T02:08:38.345Z,101312.84
2023-03-16T02:11:10.344Z,101305.34
2023-03-16T02:13:51.559Z,101313.06
2023-03-16T02:16:24.057Z,101313.69
2023-03-16T02:18:54.847Z,101313.28
2023-03-16T02:21:28.177Z,101311.25
2023-03-16T02:23:59.085Z,101315.59
2023-03-16T02:26:39.756Z,101318.75
2023-03-16T02:29:16.356Z,101312.94
2023-03-16T02:31:49.321Z,101310.03
2023-03-16T02:34:19.843Z,101319.59
2023-03-16T02:36:50.911Z,101320.06
2023-03-16T02:39:25.539Z,101310.91
2023-03-16T02:41:55.680Z,101312.16
2023-03-16T02:44:28.470Z,101314.69
2023-03-16T02:47:01.814Z,101308.03
2023-03-16T02:49:43.997Z,101312.00
2023-03-16T02:52:14.365Z,101314.31
2023-03-16T02:54:45.001Z,101309.56
2023-03-16T02:57:16.080Z,101305.63
2023-03-16T02:59:47.361Z,101298.97
2023-03-16T03:02:18.168Z,101303.16
2023-03-16T03:04:48.324Z,101306.50
2023-03-16T03:07:18.518Z,101300.66
2023-03-16T03:10:00.832Z,101296.72
2023-03-16T03:12:34.381Z,101267.34
2023-03-16T03:15:09.299Z,101294.25
2023-03-16T03:18:05.824Z,101285.72
2023-03-16T03:20:37.106Z,101282.63
2023-03-16T03:23:07.372Z,101277.81
2023-03-16T03:25:37.771Z,101269.31
2023-03-16T03:28:08.531Z,101277.00
2023-03-16T03:30:39.264Z,101264.09
2023-03-16T03:33:10.325Z,101258.28
2023-03-16T03:35:40.671Z,101250.78
2023-03-16T03:38:11.127Z,101254.13
2023-03-16T03:40:46.206Z,101246.44
2023-03-16T03:43:17.539Z,101240.81
2023-03-16T03:45:49.050Z,101240.41
2023-03-16T03:48:19.746Z,101243.75
2023-03-16T03:50:50.536Z,101237.94
2023-03-16T03:53:20.779Z,101226.91
2023-03-16T03:56:09.667Z,101224.63
2023-03-16T03:58:42.483Z,101218.16
2023-03-16T04:01:14.553Z,101217.75
2023-03-16T04:03:45.268Z,101214.00
2023-03-16T04:06:18.054Z,101196.50
2023-03-16T04:08:48.255Z,101196.31
2023-03-16T04:11:22.594Z,101194.00
2023-03-16T04:13:54.876Z,101193.81
2023-03-16T04:16:28.469Z,101190.03
2023-03-16T04:18:59.853Z,101179.84
2023-03-16T04:21:30.228Z,101172.56
2023-03-16T04:24:00.544Z,101171.31
2023-03-16T04:26:36.233Z,101175.66
2023-03-16T04:29:07.382Z,101160.06
2023-03-16T04:31:38.062Z,101159.84
2023-03-16T04:34:08.642Z,101148.78
2023-03-16T04:36:39.081Z,101138.59
2023-03-16T04:39:10.267Z,101135.47
2023-03-16T04:41:40.602Z,101135.22
2023-03-16T04:44:17.144Z,101123.16
2023-03-16T04:46:47.669Z,101121.28
2023-03-16T04:49:18.181Z,101115.44
2023-03-16T04:51:49.197Z,101117.94
2023-03-16T04:54:22.508Z,101096.88
2023-03-16T04:56:53.891Z,101093.75
2023-03-16T04:59:47.100Z,101083.53
2023-03-16T05:02:29.179Z,101081.47
2023-03-16T05:05:03.343Z,101075.00
2023-03-16T05:07:34.340Z,101073.53
2023-03-16T05:10:05.300Z,101068.72
2023-03-16T05:12:36.093Z,101064.97
2023-03-16T05:15:09.754Z,101063.50
2023-03-16T05:17:48.288Z,101055.19
2023-03-16T05:20:18.970Z,101052.22
2023-03-16T05:22:54.375Z,101043.66
2023-03-16T05:25:31.506Z,101036.16
2023-03-16T05:28:06.954Z,101050.34
2023-03-16T05:30:49.773Z,101039.06
2023-03-16T05:33:25.072Z,101026.09
2023-03-16T05:36:01.605Z,101024.00
2023-03-16T05:38:33.518Z,101016.50
2023-03-16T05:41:06.293Z,101009.00
2023-03-16T05:43:59.236Z,101008.56
2023-03-16T05:46:39.664Z,101007.28
2023-03-16T05:49:10.560Z,101004.97
2023-03-16T05:51:41.268Z,101000.97
2023-03-16T05:54:12.042Z,100997.00
2023-03-16T05:56:47.653Z,100993.84
2023-03-16T05:59:22.524Z,100993.41
2023-03-16T06:01:56.840Z,100982.16
2023-03-16T06:04:27.110Z,100975.47
2023-03-16T06:06:58.459Z,100970.66
2023-03-16T06:09:31.497Z,100973.75
2023-03-16T06:12:05.844Z,100967.03
2023-03-16T06:14:42.943Z,100963.06
2023-03-16T06:17:14.037Z,100954.47
2023-03-16T06:19:45.769Z,100956.97
2023-03-16T06:22:27.897Z,100938.59
2023-03-16T06:25:00.865Z,100938.13
2023-03-16T06:27:31.957Z,100923.09
2023-03-16T06:30:21.997Z,100940.81
2023-03-16T06:32:52.303Z,100935.13
2023-03-16T06:35:22.928Z,100943.66
2023-03-16T06:38:16.736Z,100932.38
2023-03-16T06:40:57.772Z,100918.34
2023-03-16T06:43:34.874Z,100915.19
2023-03-16T06:46:05.116Z,100899.53
2023-03-16T06:48:35.405Z,100907.78
2023-03-16T06:51:08.730Z,100904.03
2023-03-16T06:53:40.245Z,100906.94
2023-03-16T06:56:11.407Z,100894.81
2023-03-16T06:58:44.544Z,100888.09
2023-03-16T07:01:14.960Z,100885.75
2023-03-16T07:03:45.234Z,100877.16
2023-03-16T07:06:27.166Z,100878.34
2023-03-16T07:08:57.694Z,100873.31
2023-03-16T07:11:31.490Z,100869.06
2023-03-16T07:14:02.059Z,100864.00
2023-03-16T07:16:35.506Z,100860.59
2023-03-16T07:19:08.280Z,100858.25
2023-03-16T07:21:42.214Z,100850.69
2023-03-16T07:24:17.463Z,100858.16
2023-03-16T07:26:48.700Z,100853.31
2023-03-16T07:29:27.735Z,100853.69
2023-03-16T07:31:58.303Z,100843.41
2023-03-16T07:34:35.738Z,100855.50
2023-03-16T07:37:05.724Z,100845.25
2023-03-16T07:39:37.520Z,100847.25
2023-03-16T07:42:16.378Z,100841.34
2023-03-16T07:45:07.101Z,100836.31
2023-03-16T07:47:37.057Z,100835.84
2023-03-16T07:50:17.589Z,100842.44
2023-03-16T07:52:49.060Z,100842.81
2023-03-16T07:55:19.613Z,100830.66
2023-03-16T07:57:50.730Z,100836.44
2023-03-16T08:00:28.258Z,100833.00
2023-03-16T08:02:59.014Z,100837.16
2023-03-16T08:05:29.511Z,100829.59
2023-03-16T08:08:03.235Z,100766.09
2023-03-16T08:10:35.251Z,100828.09
2023-03-16T08:13:15.448Z,100826.53
2023-03-16T08:15:51.755Z,100822.75
2023-03-16T08:18:28.579Z,100823.97
2023-03-16T08:20:59.258Z,100821.59
2023-03-16T08:23:30.832Z,100823.03
2023-03-16T08:26:00.820Z,100826.94
2023-03-16T08:28:31.910Z,100832.47
2023-03-16T08:31:04.993Z,100824.91
2023-03-16T08:33:59.502Z,100824.44
2023-03-16T08:36:32.038Z,100816.28
2023-03-16T08:39:07.408Z,100822.31
2023-03-16T08:41:47.402Z,100833.53
2023-03-16T08:44:29.594Z,100826.78
2023-03-16T08:46:59.602Z,100831.75
2023-03-16T08:49:30.178Z,100828.53
2023-03-16T08:52:11.594Z,100830.78
2023-03-16T08:54:47.221Z,100839.53
2023-03-16T08:57:25.982Z,100839.66
2023-03-16T08:59:57.380Z,100838.09
2023-03-16T09:02:27.426Z,100834.91
2023-03-16T09:04:58.649Z,100832.56
2023-03-16T09:07:29.646Z,100840.25
2023-03-16T09:09:59.721Z,100799.00
2023-03-16T09:12:29.646Z,100826.50
2023-03-16T09:14:59.942Z,100833.94
2023-03-16T09:17:30.343Z,100828.84
2023-03-16T09:20:11.473Z,100829.22
2023-03-16T09:22:49.629Z,100835.84
2023-03-16T09:25:20.176Z,100831.41
2023-03-16T09:27:50.572Z,100834.97
2023-03-16T09:30:21.253Z,100835.91
2023-03-16T09:32:51.989Z,100833.88
2023-03-16T09:35:22.513Z,100835.44
2023-03-16T09:38:05.715Z,100838.22
2023-03-16T09:40:38.806Z,100843.31
2023-03-16T09:43:28.268Z,100850.84
2023-03-16T09:46:08.316Z,100846.50
2023-03-16T09:48:39.734Z,100851.34
2023-03-16T09:51:15.835Z,100845.28
2023-03-16T09:53:49.476Z,100853.44
2023-03-16T09:56:24.266Z,100860.56
2023-03-16T09:58:54.342Z,100857.84
2023-03-16T10:01:24.592Z,100854.53
2023-03-16T10:04:02.000Z,100858.88
2023-03-16T10:06:33.145Z,100859.47
2023-03-16T10:09:18.522Z,100862.66
2023-03-16T10:11:51.653Z,100869.28
2023-03-16T10:14:27.263Z,100870.94
2023-03-16T10:17:06.877Z,100878.03
2023-03-16T10:19:43.488Z,100875.91
2023-03-16T10:22:19.084Z,100875.09
2023-03-16T10:25:04.030Z,100879.72
2023-03-16T10:27:35.982Z,100879.31
2023-03-16T10:30:09.911Z,100876.59
2023-03-16T10:32:40.247Z,100879.56
2023-03-16T10:35:22.319Z,100876.84
2023-03-16T10:37:53.140Z,100884.88
2023-03-16T10:40:23.669Z,100879.44
2023-03-16T10:42:54.987Z,100885.69
2023-03-16T10:45:33.245Z,100887.13
2023-03-16T10:48:16.896Z,100885.97
2023-03-16T10:50:52.048Z,100889.53
2023-03-16T10:53:26.826Z,100892.03
2023-03-16T10:56:04.562Z,100892.28
2023-03-16T10:58:41.741Z,100898.41
2023-03-16T11:01:20.126Z,100893.91
2023-03-16T11:03:52.701Z,100897.03
2023-03-16T11:06:26.126Z,100907.44
2023-03-16T11:08:56.957Z,100908.47
2023-03-16T11:11:31.653Z,100918.31
2023-03-16T11:14:02.893Z,100910.16
2023-03-16T11:16:41.520Z,100912.88
2023-03-16T11:19:22.158Z,100907.44
2023-03-16T11:22:01.348Z,100915.59
2023-03-16T11:24:31.475Z,100920.69
2023-03-16T11:27:03.035Z,100922.53
2023-03-16T11:29:39.298Z,100926.34
2023-03-16T11:32:21.962Z,100931.78
2023-03-16T11:34:52.103Z,100938.50
2023-03-16T11:37:30.821Z,100939.78
2023-03-16T11:40:16.710Z,100946.03
2023-03-16T11:42:49.672Z,100944.06
2023-03-16T11:45:41.443Z,100947.81
2023-03-16T11:48:22.004Z,100944.75
2023-03-16T11:51:00.808Z,100954.22
2023-03-16T11:54:09.513Z,100961.75
2023-03-16T11:56:52.475Z,100966.03
2023-03-16T11:59:35.832Z,100969.81
2023-03-16T12:02:27.015Z,100973.00
2023-03-16T12:05:01.235Z,100988.72
2023-03-16T12:07:49.455Z,100990.84
2023-03-16T12:10:27.523Z,100992.34
2023-03-16T12:12:57.670Z,100990.09
2023-03-16T12:15:46.151Z,101003.13
2023-03-16T12:18:22.761Z,101005.47
2023-03-16T12:20:53.442Z,101010.31
2023-03-16T12:23:31.161Z,101014.91
2023-03-16T12:26:02.365Z,101024.13
2023-03-16T12:28:34.839Z,101022.69
2023-03-16T12:31:15.496Z,101034.03
2023-03-16T12:34:04.222Z,101038.00
2023-03-16T12:36:41.594Z,101042.25
2023-03-16T12:39:35.063Z,101047.09
2023-03-16T12:42:18.002Z,101046.75
2023-03-16T12:44:55.432Z,101051.84
2023-03-16T12:47:25.832Z,101057.91
2023-03-16T12:49:58.283Z,101063.91
2023-03-16T12:52:28.525Z,101061.38
2023-03-16T12:55:09.746Z,101068.63
2023-03-16T12:57:41.334Z,101080.81
2023-03-16T13:00:13.531Z,101078.78
2023-03-16T13:02:51.622Z,101079.84
2023-03-16T13:05:31.344Z,101098.00
2023-03-16T13:08:13.439Z,101104.72
2023-03-16T13:10:44.744Z,101098.03
2023-03-16T13:13:19.868Z,101105.38
2023-03-16T13:15:51.072Z,101111.25
2023-03-16T13:18:22.580Z,101116.06
2023-03-16T13:20:55.255Z,101106.44
2023-03-16T13:23:29.040Z,101108.53
2023-03-16T13:26:21.330Z,101104.16
2023-03-16T13:28:56.497Z,101111.09
2023-03-16T13:31:37.795Z,101114.25
2023-03-16T13:34:09.843Z,101113.41
2023-03-16T13:36:40.952Z,101123.81
2023-03-16T13:39:20.651Z,101114.84
2023-03-16T13:42:16.692Z,101129.47
2023-03-16T13:44:47.237Z,101133.25
2023-03-16T13:47:20.196Z,101132.19
2023-03-16T13:49:55.317Z,101145.38
2023-03-16T13:52:33.599Z,101138.06
2023-03-16T13:55:06.479Z,101134.09
2023-03-16T13:57:42.354Z,101156.06
2023-03-16T14:00:18.538Z,101149.63
2023-03-16T14:02:50.361Z,101145.91
2023-03-16T14:05:21.832Z,101098.19
2023-03-16T14:07:52.869Z,101144.00
2023-03-16T14:10:24.494Z,101134.91
2023-03-16T14:12:54.972Z,101134.56
2023-03-16T14:15:30.157Z,101138.09
2023-03-16T14:18:17.995Z,101141.44
2023-03-16T14:20:49.361Z,101139.38
2023-03-16T14:23:21.059Z,101139.63
2023-03-16T14:25:52.357Z,101147.13
2023-03-16T14:29:14.176Z,101148.41
2023-03-16T14:32:21.436Z,101165.09
2023-03-16T14:34:52.738Z,101159.66
2023-03-16T14:37:23.522Z,101158.81
2023-03-16T14:40:01.422Z,101151.75
2023-03-16T14:42:32.934Z,101150.91
2023-03-16T14:45:09.197Z,101155.50
2023-03-16T14:47:43.139Z,101165.03
2023-03-16T14:50:20.277Z,101168.38
2023-03-16T14:52:52.002Z,101164.63
2023-03-16T14:55:24.498Z,101165.44
2023-03-16T14:57:58.203Z,101162.53
2023-03-16T15:00:29.369Z,101174.38
2023-03-16T15:03:02.267Z,101171.41
2023-03-16T15:05:35.339Z,101175.59
2023-03-16T15:08:07.956Z,101175.78
2023-03-16T15:10:38.645Z,101180.56
2023-03-16T15:13:36.226Z,101179.53
2023-03-16T15:16:07.328Z,101178.25
2023-03-16T15:18:38.977Z,101179.06
2023-03-16T15:21:15.944Z,101174.47
2023-03-16T15:23:46.386Z,101176.78
2023-03-16T15:26:18.083Z,101174.47
2023-03-16T15:28:48.945Z,101179.28
2023-03-16T15:31:19.183Z,101174.72
2023-03-16T15:33:49.773Z,101169.13
2023-03-16T15:36:21.525Z,101176.81
2023-03-16T15:38:53.587Z,101183.28
2023-03-16T15:41:25.878Z,101185.97
2023-03-16T15:44:02.214Z,101190.09
2023-03-16T15:46:33.109Z,101193.03
2023-03-16T15:49:03.758Z,101202.78
2023-03-16T15:51:34.280Z,101195.72
2023-03-16T15:54:06.531Z,101191.75
2023-03-16T15:56:52.803Z,101191.97
2023-03-16T15:59:25.139Z,101194.88
2023-03-16T16:01:55.280Z,101187.81
2023-03-16T16:04:27.028Z,101189.44
2023-03-16T16:06:58.276Z,101192.34
2023-03-16T16:09:29.091Z,101188.81
2023-03-16T16:11:59.182Z,101187.34
2023-03-16T16:14:30.920Z,101199.38
2023-03-16T16:17:00.965Z,101206.03
2023-03-16T16:19:31.988Z,101206.44
2023-03-16T16:22:02.033Z,101212.25
2023-03-16T16:24:32.144Z,101205.19
2023-03-16T16:27:02.181Z,101207.44
2023-03-16T16:29:37.041Z,101205.56
2023-03-16T16:32:27.539Z,101202.00
2023-03-16T16:35:04.255Z,101199.31
2023-03-16T16:37:34.736Z,101200.69
2023-03-16T16:40:04.850Z,101199.22
2023-03-16T16:42:35.451Z,101205.88
2023-03-16T16:45:05.625Z,101205.00
2023-03-16T16:47:35.800Z,101196.25
2023-03-16T16:50:15.469Z,101202.06
2023-03-16T16:52:45.879Z,101196.03
2023-03-16T16:55:16.611Z,101190.41
2023-03-16T16:57:47.004Z,101196.56
2023-03-16T17:00:21.367Z,101197.81
2023-03-16T17:02:55.581Z,101193.66
2023-03-16T17:05:27.707Z,101196.34
2023-03-16T17:07:57.989Z,101196.94
2023-03-16T17:10:28.623Z,101198.81
2023-03-16T17:12:58.794Z,101195.66
2023-03-16T17:15:33.234Z,101196.91
2023-03-16T17:18:05.156Z,101182.13
2023-03-16T17:20:35.774Z,101182.53
2023-03-16T17:23:20.650Z,101179.41
2023-03-16T17:25:50.844Z,101170.66
2023-03-16T17:28:20.979Z,101174.34
2023-03-16T17:30:51.254Z,101175.59
2023-03-16T17:33:21.534Z,101167.88
2023-03-16T17:35:52.288Z,101160.16
2023-03-16T17:38:26.186Z,101159.53
2023-03-16T17:40:57.245Z,101147.47
2023-03-16T17:43:27.620Z,101152.84
2023-03-16T17:45:58.034Z,101161.78
2023-03-16T17:48:28.107Z,101152.22
2023-03-16T17:50:58.477Z,101148.91
2023-03-16T17:53:28.559Z,101146.00
2023-03-16T17:55:58.818Z,101135.41
2023-03-16T17:58:31.627Z,101136.25
2023-03-16T18:01:02.017Z,101138.94
2023-03-16T18:03:32.075Z,101131.41
2023-03-16T18:06:02.199Z,101128.09
2023-03-16T18:08:34.760Z,101120.84
2023-03-16T18:11:06.178Z,101124.56
2023-03-16T18:13:38.733Z,101117.69
2023-03-16T18:16:09.333Z,101118.53
2023-03-16T18:18:43.008Z,101106.91
2023-03-16T18:21:24.736Z,101102.53
2023-03-16T18:23:55.271Z,101100.25
2023-03-16T18:26:26.014Z,101104.16
2023-03-16T18:28:56.919Z,101091.91
2023-03-16T18:31:29.240Z,101085.69
2023-03-16T18:34:01.135Z,101086.50
2023-03-16T18:36:33.720Z,101076.13
2023-03-16T18:39:07.107Z,101075.47
2023-03-16T18:41:37.436Z,101077.34
2023-03-16T18:44:18.290Z,101074.47
2023-03-16T18:46:49.702Z,101084.78
2023-03-16T18:49:24.624Z,101078.38
2023-03-16T18:51:55.930Z,101075.69
2023-03-16T18:54:27.319Z,101066.94
2023-03-16T18:56:59.987Z,101069.81
2023-03-16T18:59:30.012Z,101061.13
2023-03-16T19:02:00.235Z,101064.44
2023-03-16T19:04:31.587Z,101066.13
2023-03-16T19:07:01.782Z,101061.13
2023-03-16T19:09:33.025Z,101060.09
2023-03-16T19:12:04.973Z,101052.00
2023-03-16T19:14:36.185Z,101057.59
2023-03-16T19:17:06.264Z,101052.38
2023-03-16T19:19:36.454Z,101054.44
2023-03-16T19:22:11.162Z,101047.41
2023-03-16T19:24:43.886Z,101045.75
2023-03-16T19:27:19.753Z,101044.88
2023-03-16T19:29:52.141Z,101040.09
2023-03-16T19:32:23.260Z,101039.41
2023-03-16T19:34:53.836Z,101042.13
2023-03-16T19:37:25.334Z,101031.34
2023-03-16T19:39:55.743Z,101021.59
2023-03-16T19:43:01.200Z,101029.84
2023-03-16T19:46:17.784Z,101017.59
2023-03-16T19:48:50.688Z,101015.31
2023-03-16T19:51:40.753Z,101018.00
2023-03-16T19:54:40.988Z,101014.66
2023-03-16T19:57:39.353Z,101010.31
2023-03-16T20:00:10.623Z,101009.47
2023-03-16T20:03:14.908Z,101009.66
2023-03-16T20:05:54.293Z,100969.44
2023-03-16T20:08:31.279Z,101012.34
2023-03-16T20:11:08.880Z,101013.56
2023-03-16T20:13:42.271Z,101015.66
2023-03-16T20:16:17.045Z,101020.19
2023-03-16T20:18:48.749Z,101016.88
2023-03-16T20:21:25.239Z,101011.50
2023-03-16T20:24:04.929Z,101009.81
2023-03-16T20:26:40.689Z,101008.53
2023-03-16T20:29:18.663Z,101000.63
2023-03-16T20:31:49.026Z,101002.50
2023-03-16T20:34:29.307Z,100999.81
2023-03-16T20:36:59.403Z,100994.81
2023-03-16T20:39:40.144Z,100998.53
2023-03-16T20:42:27.795Z,100995.19
2023-03-16T20:44:58.153Z,100999.94
2023-03-16T20:47:37.722Z,100998.06
2023-03-16T20:50:25.759Z,100998.47
2023-03-16T20:54:00.633Z,101001.38
2023-03-16T20:56:36.768Z,101000.50
2023-03-16T20:59:29.958Z,100996.38
2023-03-16T21:02:15.344Z,100989.31
2023-03-16T21:04:51.488Z,100993.69
2023-03-16T21:07:31.110Z,100986.81
2023-03-16T21:10:33.937Z,100995.09
2023-03-16T21:13:25.708Z,100988.03
2023-03-16T21:16:03.887Z,100998.81
2023-03-16T21:18:34.413Z,100990.09
2023-03-16T21:21:04.759Z,100992.13
2023-03-16T21:23:35.178Z,100998.56
2023-03-16T21:26:05.806Z,100993.56
2023-03-16T21:28:36.891Z,100990.03
2023-03-16T21:31:25.559Z,100991.25
2023-03-16T21:34:07.052Z,100989.38
2023-03-16T21:36:37.265Z,100988.56
2023-03-16T21:39:19.126Z,100997.47
2023-03-16T21:41:57.645Z,100989.38
2023-03-16T21:44:27.718Z,100996.63
2023-03-16T21:46:58.164Z,100993.28
2023-03-16T21:49:28.217Z,100993.66
2023-03-16T21:51:58.602Z,100996.34
2023-03-16T21:54:28.998Z,100999.03
2023-03-16T21:56:59.093Z,100999.03
2023-03-16T21:59:29.200Z,101002.72
2023-03-16T22:02:02.327Z,100998.38
2023-03-16T22:04:33.013Z,100997.75
2023-03-16T22:07:03.111Z,101000.44
2023-03-16T22:09:34.289Z,101010.59
2023-03-16T22:12:04.300Z,101014.28
2023-03-16T22:14:34.546Z,101021.75
2023-03-16T22:17:05.940Z,101017.19
2023-03-16T22:19:36.208Z,101017.19
2023-03-16T22:22:08.409Z,101019.03
2023-03-16T22:24:39.367Z,101032.50
2023-03-16T22:27:40.442Z,101034.34
2023-03-16T22:30:27.415Z,101030.00
2023-03-16T22:32:59.522Z,101032.88
2023-03-16T22:35:38.024Z,101040.31
2023-03-16T22:38:26.682Z,101040.69
2023-03-16T22:40:56.963Z,101034.47
2023-03-16T22:43:32.840Z,101040.31
2023-03-16T22:46:03.426Z,101039.56
2023-03-16T22:48:33.680Z,101047.50
2023-03-16T22:51:06.177Z,101053.81
2023-03-16T22:53:47.014Z,101047.69
2023-03-16T22:56:17.274Z,101054.53
2023-03-16T22:58:50.491Z,101056.78
2023-03-16T23:01:22.393Z,101058.66
2023-03-16T23:03:55.089Z,101056.09
2023-03-16T23:06:26.655Z,101064.28
2023-03-16T23:08:57.780Z,101059.66
2023-03-16T23:11:29.693Z,101073.66
2023-03-16T23:14:01.153Z,101069.50
2023-03-16T23:16:38.542Z,101075.25
2023-03-16T23:19:28.911Z,101076.66
2023-03-16T23:22:01.304Z,101083.72
2023-03-16T23:24:32.768Z,101086.78
2023-03-16T23:27:03.025Z,101081.41
2023-03-16T23:29:33.708Z,101087.78
2023-03-16T23:32:05.761Z,101089.47
2023-03-16T23:34:35.823Z,101099.41
2023-03-16T23:37:05.960Z,101095.22
2023-03-16T23:39:36.329Z,101107.66
2023-03-16T23:42:07.138Z,101109.50
2023-03-16T23:44:37.976Z,101120.06
2023-03-16T23:47:08.586Z,101121.09
2023-03-16T23:49:40.463Z,101122.75
2023-03-16T23:52:13.387Z,101125.63
2023-03-16T23:54:44.881Z,101131.53
2023-03-16T23:57:14.986Z,101139.88
2023-03-16T23:59:45.000Z,101128.59
